Time;durP1;ratioP1;P1;durP2;ratioP2;P2;SDS_P1;SDS_P2;PMS_P1;PMS_P2;Temp;Humidity;BMP_temperature;BMP_pressure;BME280_temperature;BME280_humidity;BME280_pressure;Samples;Min_cycle;Max_cycle;Signal;HPM_P1;HPM_P2
2021/08/10 00:00:33;;;;;;;13.05;3.85;;;17.70;99.90;;;;;;5049541;28;20194;-80
2021/08/10 00:03:00;;;;;;;13.40;4.63;;;17.70;99.90;;;;;;5048466;28;20668;-79
2021/08/10 00:05:27;;;;;;;14.88;3.83;;;17.70;99.90;;;;;;5048992;28;20198;-81
2021/08/10 00:07:55;;;;;;;9.45;3.05;;;17.70;99.90;;;;;;5047797;28;20217;-81
2021/08/10 00:10:23;;;;;;;13.38;4.53;;;17.60;99.90;;;;;;5048307;28;20204;-79
2021/08/10 00:12:49;;;;;;;16.77;4.30;;;17.60;99.90;;;;;;5047728;28;20683;-81
2021/08/10 00:15:16;;;;;;;15.80;4.70;;;17.50;99.90;;;;;;5047881;28;20340;-81
2021/08/10 00:17:43;;;;;;;10.27;4.22;;;17.50;99.90;;;;;;5048326;28;20222;-81
2021/08/10 00:20:11;;;;;;;11.45;4.20;;;17.50;99.90;;;;;;5048560;28;20205;-81
2021/08/10 00:22:38;;;;;;;11.00;3.90;;;17.50;99.90;;;;;;5047641;28;20210;-82
2021/08/10 00:25:08;;;;;;;15.63;4.22;;;17.40;99.90;;;;;;5048618;28;20205;-82
2021/08/10 00:27:34;;;;;;;10.77;3.15;;;17.40;99.90;;;;;;5048088;28;20661;-81
2021/08/10 00:30:01;;;;;;;10.52;3.50;;;17.40;99.90;;;;;;5048938;28;20210;-81
2021/08/10 00:32:28;;;;;;;8.48;2.95;;;17.30;99.90;;;;;;5048324;28;20205;-82
2021/08/10 00:34:55;;;;;;;10.90;3.70;;;17.30;99.90;;;;;;5048640;28;20225;-79
2021/08/10 00:37:22;;;;;;;10.48;3.22;;;17.30;99.90;;;;;;5047991;28;20212;-80
2021/08/10 00:39:49;;;;;;;7.75;3.13;;;17.30;99.90;;;;;;5049303;28;20202;-81
2021/08/10 00:42:17;;;;;;;12.95;3.38;;;17.30;99.90;;;;;;5047384;28;20829;-81
2021/08/10 00:44:44;;;;;;;14.88;3.80;;;17.30;99.90;;;;;;5048701;28;20304;-79
2021/08/10 00:47:11;;;;;;;9.02;3.17;;;17.20;99.90;;;;;;5041597;28;20603;-80
2021/08/10 00:49:38;;;;;;;12.02;3.38;;;17.30;99.90;;;;;;5028139;28;20537;-81
2021/08/10 00:52:05;;;;;;;15.80;3.45;;;17.30;99.90;;;;;;5028083;28;20290;-81
2021/08/10 00:54:33;;;;;;;10.80;3.50;;;17.30;99.90;;;;;;5027384;28;20222;-81
2021/08/10 00:57:00;;;;;;;8.95;2.70;;;17.20;99.90;;;;;;5015069;28;20214;-82
2021/08/10 00:59:28;;;;;;;7.90;3.38;;;17.20;99.90;;;;;;5026596;28;20203;-82
2021/08/10 01:01:55;;;;;;;9.63;3.58;;;17.10;99.90;;;;;;5026215;28;20215;-82
2021/08/10 01:04:22;;;;;;;11.30;3.25;;;17.10;99.90;;;;;;5037468;28;20209;-82
2021/08/10 01:06:59;;;;;;;9.88;3.35;;;17.10;99.90;;;;;;5040610;28;20206;-80
2021/08/10 01:09:32;;;;;;;12.30;3.72;;;17.10;99.90;;;;;;5027146;28;20202;-81
2021/08/10 01:12:05;;;;;;;11.90;4.43;;;17.00;99.90;;;;;;5028682;28;20198;-80
2021/08/10 01:14:41;;;;;;;10.95;3.90;;;17.00;99.90;;;;;;5030855;28;20553;-80
2021/08/10 01:17:13;;;;;;;9.07;4.05;;;17.00;99.90;;;;;;5047963;28;20217;-82
2021/08/10 01:20:18;;;;;;;14.27;4.00;;;17.00;99.90;;;;;;5047838;28;20676;-81
2021/08/10 01:22:50;;;;;;;10.50;3.78;;;17.10;99.90;;;;;;5047182;28;20213;-82
2021/08/10 01:25:30;;;;;;;13.93;4.10;;;17.10;99.90;;;;;;5048453;28;20209;-81
2021/08/10 01:28:13;;;;;;;11.15;3.70;;;17.10;99.90;;;;;;5048065;28;20201;-83
2021/08/10 01:30:48;;;;;;;13.90;3.75;;;17.20;99.90;;;;;;5048388;28;20221;-81
2021/08/10 01:33:17;;;;;;;10.65;4.13;;;17.20;99.90;;;;;;5047694;28;20961;-80
2021/08/10 01:35:44;;;;;;;12.70;4.45;;;17.10;99.90;;;;;;5048218;28;20236;-82
2021/08/10 01:38:11;;;;;;;6.53;3.45;;;17.10;99.90;;;;;;5048948;28;20205;-80
2021/08/10 01:40:38;;;;;;;9.15;2.90;;;17.00;99.90;;;;;;5048203;28;20206;-82
2021/08/10 01:43:06;;;;;;;6.32;2.45;;;16.90;99.90;;;;;;5048391;28;20209;-81
2021/08/10 01:45:37;;;;;;;11.90;3.22;;;16.90;99.90;;;;;;5047709;28;20197;-81
2021/08/10 01:48:07;;;;;;;8.48;3.40;;;16.80;99.90;;;;;;5046177;28;20739;-80
2021/08/10 01:50:36;;;;;;;9.90;2.95;;;16.80;99.90;;;;;;5046242;28;20996;-80
2021/08/10 01:53:04;;;;;;;7.85;3.45;;;16.70;99.90;;;;;;5045620;28;20617;-81
2021/08/10 01:55:32;;;;;;;7.55;3.03;;;16.60;99.90;;;;;;5046020;28;20388;-81
2021/08/10 01:57:59;;;;;;;11.20;3.20;;;16.60;99.90;;;;;;5046935;28;20695;-80
2021/08/10 02:00:27;;;;;;;7.50;2.90;;;16.50;99.90;;;;;;5035753;28;20615;-81
2021/08/10 02:02:54;;;;;;;6.50;3.20;;;16.50;99.90;;;;;;5041330;28;20232;-81
2021/08/10 02:05:23;;;;;;;5.50;2.47;;;16.50;99.90;;;;;;5046453;28;20206;-81
2021/08/10 02:07:51;;;;;;;7.40;3.67;;;16.40;99.90;;;;;;5046502;28;20291;-83
2021/08/10 02:10:19;;;;;;;13.95;4.45;;;16.40;99.90;;;;;;5047623;28;20228;-83
2021/08/10 02:12:46;;;;;;;12.30;4.68;;;16.40;99.90;;;;;;5046962;28;20201;-83
2021/08/10 02:15:13;;;;;;;8.95;4.05;;;16.40;99.90;;;;;;5047409;28;20222;-82
2021/08/10 02:17:40;;;;;;;11.18;4.15;;;16.40;99.90;;;;;;5048437;28;20540;-85
2021/08/10 02:20:08;;;;;;;12.32;4.22;;;16.40;99.90;;;;;;5048736;28;20205;-84
2021/08/10 02:22:35;;;;;;;11.80;4.30;;;16.40;99.90;;;;;;5047893;28;20229;-83
2021/08/10 02:25:08;;;;;;;8.70;3.20;;;16.40;99.90;;;;;;5051237;28;20202;-86
2021/08/10 02:27:37;;;;;;;9.35;2.40;;;16.30;99.90;;;;;;5046432;28;20210;-85
2021/08/10 02:30:08;;;;;;;7.40;2.28;;;16.20;99.90;;;;;;5032781;28;20213;-85
2021/08/10 02:32:37;;;;;;;6.78;2.50;;;16.10;99.90;;;;;;5033357;28;20202;-83
2021/08/10 02:35:06;;;;;;;5.95;2.63;;;16.00;99.90;;;;;;5032232;28;20226;-83
2021/08/10 02:37:34;;;;;;;9.98;3.00;;;16.00;99.90;;;;;;5041527;28;20218;-84
2021/08/10 02:40:07;;;;;;;3.75;2.63;;;15.90;99.90;;;;;;5052443;28;20206;-82
2021/08/10 02:42:35;;;;;;;7.07;2.80;;;15.90;99.90;;;;;;5038965;28;20338;-82
2021/08/10 02:45:02;;;;;;;6.97;2.20;;;15.90;99.90;;;;;;5030921;28;20988;-83
2021/08/10 02:47:29;;;;;;;3.53;2.10;;;15.90;99.90;;;;;;5041770;28;20221;-84
2021/08/10 02:49:56;;;;;;;4.35;2.40;;;15.90;99.90;;;;;;5050185;28;20508;-83
2021/08/10 02:52:23;;;;;;;3.63;2.25;;;15.90;99.90;;;;;;5049998;28;20202;-81
2021/08/10 02:54:50;;;;;;;7.38;2.67;;;15.90;99.90;;;;;;5050048;28;20638;-82
2021/08/10 02:57:25;;;;;;;7.10;2.85;;;15.90;99.90;;;;;;5050172;28;20217;-84
2021/08/10 02:59:57;;;;;;;9.00;2.90;;;15.90;99.90;;;;;;5049893;28;20267;-83
2021/08/10 03:02:27;;;;;;;6.90;2.88;;;15.90;99.90;;;;;;5050450;28;20277;-83
2021/08/10 03:04:58;;;;;;;4.43;2.58;;;15.90;99.90;;;;;;5035102;28;20693;-80
2021/08/10 03:07:26;;;;;;;8.80;3.33;;;15.90;99.90;;;;;;5049336;28;20198;-85
2021/08/10 03:10:04;;;;;;;7.65;3.25;;;15.80;99.90;;;;;;5050025;28;20992;-84
2021/08/10 03:12:35;;;;;;;14.30;4.60;;;15.80;99.90;;;;;;5048827;28;20217;-80
2021/08/10 03:15:03;;;;;;;12.82;5.63;;;15.90;99.90;;;;;;5049366;28;20228;-84
2021/08/10 03:17:36;;;;;;;17.17;5.63;;;15.90;99.90;;;;;;5047855;28;20866;-82
2021/08/10 03:20:04;;;;;;;15.80;6.35;;;15.90;99.90;;;;;;5029750;28;20560;-82
2021/08/10 03:22:33;;;;;;;14.30;5.35;;;16.00;99.90;;;;;;5029564;28;20199;-83
2021/08/10 03:25:00;;;;;;;18.33;6.47;;;16.10;99.90;;;;;;5035983;28;20210;-83
2021/08/10 03:27:28;;;;;;;17.98;5.70;;;16.20;99.90;;;;;;5048492;28;20206;-82
2021/08/10 03:29:57;;;;;;;16.23;6.22;;;16.30;99.90;;;;;;5049003;28;20206;-82
2021/08/10 03:32:25;;;;;;;19.20;8.13;;;16.40;99.90;;;;;;5039251;28;20206;-81
2021/08/10 03:34:53;;;;;;;19.52;7.75;;;16.40;99.90;;;;;;5029008;28;20214;-83
2021/08/10 03:37:21;;;;;;;15.40;6.80;;;16.40;99.90;;;;;;5029104;28;20207;-82
2021/08/10 03:39:49;;;;;;;15.68;7.57;;;16.40;99.90;;;;;;5026562;28;20214;-85
2021/08/10 03:42:16;;;;;;;16.73;7.32;;;16.40;99.90;;;;;;5025293;28;20498;-81
2021/08/10 03:44:44;;;;;;;18.20;7.25;;;16.40;99.90;;;;;;5043037;28;20195;-82
2021/08/10 03:47:15;;;;;;;13.55;5.95;;;16.50;99.90;;;;;;5030324;28;20217;-82
2021/08/10 03:49:44;;;;;;;21.55;7.28;;;16.50;99.90;;;;;;5030858;28;20230;-82
2021/08/10 03:52:12;;;;;;;20.15;8.00;;;16.50;99.90;;;;;;5030437;28;20199;-82
2021/08/10 03:54:41;;;;;;;14.93;7.43;;;16.50;99.90;;;;;;5029924;28;20202;-83
2021/08/10 03:57:08;;;;;;;16.77;7.53;;;16.50;99.90;;;;;;5035320;28;20194;-81
2021/08/10 03:59:37;;;;;;;22.38;7.05;;;16.50;99.90;;;;;;5028695;28;20206;-83
2021/08/10 04:02:05;;;;;;;11.35;6.53;;;16.50;99.90;;;;;;5031068;28;20496;-82
2021/08/10 04:04:34;;;;;;;16.20;5.90;;;16.50;99.90;;;;;;5048654;28;20209;-82
2021/08/10 04:07:03;;;;;;;19.00;6.50;;;16.50;99.90;;;;;;5047877;28;20190;-82
2021/08/10 04:09:30;;;;;;;25.90;8.50;;;16.50;99.90;;;;;;5046915;28;20220;-81
2021/08/10 04:11:57;;;;;;;18.23;7.57;;;16.50;99.90;;;;;;5047687;28;20202;-82
2021/08/10 04:14:24;;;;;;;18.40;6.88;;;16.50;99.90;;;;;;5048636;28;20209;-81
2021/08/10 04:16:56;;;;;;;23.55;6.78;;;16.50;99.90;;;;;;5027527;28;20955;-81
2021/08/10 04:19:28;;;;;;;16.65;6.95;;;16.50;99.90;;;;;;5029318;28;20671;-81
2021/08/10 04:21:57;;;;;;;16.40;7.13;;;16.50;99.90;;;;;;5047317;28;20680;-81
2021/08/10 04:24:24;;;;;;;20.65;7.80;;;16.50;99.90;;;;;;5047755;28;20206;-83
2021/08/10 04:26:50;;;;;;;17.67;7.03;;;16.50;99.90;;;;;;5031530;28;20214;-79
2021/08/10 04:29:18;;;;;;;14.52;7.18;;;16.40;99.90;;;;;;5026885;28;20195;-82
2021/08/10 04:31:45;;;;;;;15.52;7.30;;;16.50;99.90;;;;;;5027598;28;20211;-82
2021/08/10 04:34:12;;;;;;;18.73;6.35;;;16.50;99.90;;;;;;5027092;28;20218;-81
2021/08/10 04:36:39;;;;;;;14.70;6.88;;;16.50;99.90;;;;;;5050701;28;20694;-81
2021/08/10 04:39:07;;;;;;;15.32;6.35;;;16.60;99.90;;;;;;5051306;28;20205;-83
2021/08/10 04:41:34;;;;;;;16.73;6.57;;;16.60;99.90;;;;;;5050853;28;20210;-84
2021/08/10 04:44:01;;;;;;;11.55;5.90;;;16.60;99.90;;;;;;5050054;28;20628;-83
2021/08/10 04:46:28;;;;;;;13.15;6.32;;;16.60;99.90;;;;;;5050054;28;20202;-81
2021/08/10 04:48:56;;;;;;;13.20;6.15;;;16.60;99.90;;;;;;5050425;28;20248;-82
2021/08/10 04:51:23;;;;;;;12.93;6.43;;;16.60;99.90;;;;;;5050462;28;20209;-80
2021/08/10 04:53:50;;;;;;;14.90;6.22;;;16.60;99.90;;;;;;5050234;28;20198;-82
2021/08/10 04:56:18;;;;;;;14.50;7.05;;;16.60;99.90;;;;;;5049874;28;20228;-82
2021/08/10 04:58:45;;;;;;;22.42;7.93;;;16.60;99.90;;;;;;5050750;28;20198;-82
2021/08/10 05:01:12;;;;;;;21.05;9.40;;;16.60;99.90;;;;;;5051246;28;20201;-83
2021/08/10 05:03:40;;;;;;;14.50;6.95;;;16.60;99.90;;;;;;5049692;28;20867;-80
2021/08/10 05:06:07;;;;;;;19.90;7.70;;;16.60;99.90;;;;;;5050404;28;20265;-82
2021/08/10 05:08:34;;;;;;;12.82;6.10;;;16.60;99.90;;;;;;5062569;28;20198;-82
2021/08/10 05:11:01;;;;;;;17.42;6.85;;;16.60;99.90;;;;;;5059172;28;20206;-81
2021/08/10 05:13:30;;;;;;;17.38;7.47;;;16.60;99.90;;;;;;5049977;28;20202;-81
2021/08/10 05:15:56;;;;;;;25.10;8.98;;;16.70;99.90;;;;;;5049923;28;20234;-81
2021/08/10 05:18:23;;;;;;;20.25;9.13;;;16.70;99.90;;;;;;5048194;28;20248;-81
2021/08/10 05:20:50;;;;;;;27.10;10.00;;;16.80;99.90;;;;;;5049388;28;20202;-81
2021/08/10 05:23:17;;;;;;;14.48;7.63;;;16.90;99.90;;;;;;5048869;28;20597;-82
2021/08/10 05:25:43;;;;;;;18.38;7.20;;;16.90;99.90;;;;;;5049899;28;20202;-81
2021/08/10 05:28:10;;;;;;;22.80;7.40;;;16.90;99.90;;;;;;5049370;28;20209;-81
2021/08/10 05:30:38;;;;;;;16.00;7.55;;;16.90;99.90;;;;;;5049449;28;20197;-80
2021/08/10 05:33:05;;;;;;;19.63;7.95;;;17.00;99.90;;;;;;5049299;28;20586;-79
2021/08/10 05:35:32;;;;;;;15.35;6.78;;;17.00;99.90;;;;;;5048063;28;20236;-82
2021/08/10 05:37:59;;;;;;;19.13;7.80;;;17.10;99.90;;;;;;5048883;28;20202;-82
2021/08/10 05:40:26;;;;;;;15.25;6.93;;;17.10;99.90;;;;;;5047955;28;20928;-81
2021/08/10 05:42:52;;;;;;;21.15;8.32;;;17.00;99.90;;;;;;5029115;28;20209;-80
2021/08/10 05:45:19;;;;;;;17.95;8.27;;;17.10;99.90;;;;;;5028474;28;20212;-79
2021/08/10 05:47:47;;;;;;;17.92;7.03;;;17.10;99.90;;;;;;5042164;28;20201;-80
2021/08/10 05:50:14;;;;;;;16.65;7.47;;;17.10;99.90;;;;;;5048260;28;20230;-80
2021/08/10 05:52:41;;;;;;;16.45;7.32;;;17.10;99.90;;;;;;5048246;28;20217;-81
2021/08/10 05:55:08;;;;;;;22.13;8.35;;;17.10;99.90;;;;;;5048591;28;20206;-81
2021/08/10 05:57:35;;;;;;;14.85;6.70;;;17.00;99.90;;;;;;5049344;28;20205;-82
2021/08/10 06:00:02;;;;;;;10.20;5.88;;;17.00;99.90;;;;;;5047888;28;20205;-81
2021/08/10 06:02:29;;;;;;;15.88;6.75;;;17.00;99.90;;;;;;5047813;22;20252;-81
2021/08/10 06:04:57;;;;;;;19.13;6.35;;;17.00;99.90;;;;;;5062522;28;20209;-81
2021/08/10 06:07:23;;;;;;;13.60;6.00;;;17.10;99.90;;;;;;5048489;28;20227;-79
2021/08/10 06:09:50;;;;;;;17.15;7.55;;;17.10;99.90;;;;;;5048558;28;20482;-80
2021/08/10 06:12:17;;;;;;;16.05;7.22;;;17.10;99.90;;;;;;5048461;28;20716;-80
2021/08/10 06:14:44;;;;;;;20.13;7.63;;;17.20;99.90;;;;;;5048236;28;20289;-79
2021/08/10 06:17:10;;;;;;;21.08;7.72;;;17.20;99.90;;;;;;5048057;28;20242;-78
2021/08/10 06:19:37;;;;;;;15.00;6.22;;;17.30;99.90;;;;;;5048663;28;20195;-80
2021/08/10 06:22:06;;;;;;;18.77;6.30;;;17.40;99.90;;;;;;5047411;28;20665;-82
2021/08/10 06:24:32;;;;;;;14.43;5.35;;;17.50;99.90;;;;;;5048426;28;20209;-82
2021/08/10 06:26:59;;;;;;;11.85;5.88;;;17.50;99.90;;;;;;5048007;28;20755;-84
2021/08/10 06:29:26;;;;;;;13.02;5.90;;;17.50;99.90;;;;;;5061201;28;20213;-80
2021/08/10 06:31:53;;;;;;;11.65;5.50;;;17.60;99.90;;;;;;5068462;28;20201;-80
2021/08/10 06:34:20;;;;;;;16.63;7.82;;;17.60;99.90;;;;;;5067149;28;20209;-81
2021/08/10 06:36:47;;;;;;;15.88;6.50;;;17.80;99.90;;;;;;5067751;28;20236;-81
2021/08/10 06:39:15;;;;;;;14.68;6.25;;;18.10;99.90;;;;;;5066998;28;20201;-82
2021/08/10 06:41:42;;;;;;;14.38;5.72;;;18.30;99.90;;;;;;5068518;28;20205;-80
2021/08/10 06:44:08;;;;;;;10.38;5.63;;;18.60;99.90;;;;;;5000680;28;20201;-81
2021/08/10 06:46:37;;;;;;;14.82;4.72;;;18.70;99.90;;;;;;5048370;28;20324;-82
2021/08/10 06:49:04;;;;;;;11.93;4.50;;;18.70;99.90;;;;;;5047843;28;20197;-81
2021/08/10 06:51:31;;;;;;;11.23;4.90;;;18.80;99.90;;;;;;5053998;28;20209;-82
2021/08/10 06:53:57;;;;;;;12.45;4.70;;;19.00;99.90;;;;;;5068039;28;20498;-81
2021/08/10 06:56:25;;;;;;;13.93;5.50;;;19.30;99.90;;;;;;5066026;28;20225;-82
2021/08/10 06:58:58;;;;;;;13.45;5.10;;;19.60;99.90;;;;;;5064301;28;20205;-80
2021/08/10 07:01:25;;;;;;;13.50;5.30;;;19.90;99.90;;;;;;5066806;28;20228;-79
2021/08/10 07:03:53;;;;;;;9.35;4.57;;;20.20;99.90;;;;;;5010038;28;20697;-79
2021/08/10 07:06:20;;;;;;;11.27;4.93;;;20.30;99.90;;;;;;5007654;28;20195;-85
2021/08/10 07:08:48;;;;;;;9.48;3.95;;;20.50;99.90;;;;;;5008612;28;20207;-82
2021/08/10 07:11:15;;;;;;;9.95;4.07;;;20.80;99.90;;;;;;5007895;28;20258;-81
2021/08/10 07:13:43;;;;;;;10.05;4.85;;;20.90;99.90;;;;;;5007824;28;20626;-79
2021/08/10 07:16:10;;;;;;;8.80;4.57;;;20.80;99.90;;;;;;5007640;28;20664;-83
2021/08/10 07:18:37;;;;;;;9.38;4.10;;;20.60;99.90;;;;;;5007635;28;20227;-82
2021/08/10 07:21:04;;;;;;;9.55;4.75;;;20.50;99.90;;;;;;5027045;28;20202;-83
2021/08/10 07:23:31;;;;;;;9.23;3.90;;;20.40;99.90;;;;;;5027185;28;20214;-82
2021/08/10 07:25:58;;;;;;;9.85;4.43;;;20.20;99.90;;;;;;5027447;28;20198;-85
2021/08/10 07:28:25;;;;;;;12.82;4.38;;;20.40;99.90;;;;;;5025914;28;20202;-79
2021/08/10 07:30:53;;;;;;;11.32;4.07;;;20.70;99.90;;;;;;5026665;28;20201;-80
2021/08/10 07:33:20;;;;;;;12.63;5.18;;;21.00;99.90;;;;;;5026215;28;20202;-79
2021/08/10 07:35:46;;;;;;;13.20;4.35;;;21.30;99.90;;;;;;5020965;28;20214;-84
2021/08/10 07:38:13;;;;;;;11.95;4.78;;;21.60;99.90;;;;;;5025122;28;20202;-80
2021/08/10 07:40:40;;;;;;;9.10;3.95;;;22.00;99.90;;;;;;5028098;28;20256;-80
2021/08/10 07:43:07;;;;;;;9.48;4.20;;;22.10;99.90;;;;;;5028431;28;20218;-80
2021/08/10 07:45:34;;;;;;;8.00;3.88;;;22.30;99.90;;;;;;5023286;28;20206;-80
2021/08/10 07:48:04;;;;;;;5.82;3.70;;;22.40;99.90;;;;;;5009088;28;20286;-83
2021/08/10 07:50:31;;;;;;;8.00;3.72;;;22.40;99.90;;;;;;5007561;28;20244;-80
2021/08/10 07:52:57;;;;;;;7.47;3.53;;;22.50;99.90;;;;;;5008013;28;20199;-80
2021/08/10 07:55:24;;;;;;;7.00;4.00;;;22.80;99.90;;;;;;5019139;28;20222;-83
2021/08/10 07:57:51;;;;;;;8.38;3.80;;;23.00;99.90;;;;;;5025123;28;20223;-82
2021/08/10 08:00:18;;;;;;;7.65;3.58;;;23.00;99.90;;;;;;5026401;28;20217;-84
2021/08/10 08:02:45;;;;;;;8.27;3.40;;;23.00;99.90;;;;;;5020008;28;20542;-79
2021/08/10 08:05:13;;;;;;;8.60;3.95;;;23.10;99.90;;;;;;5021086;28;20207;-82
2021/08/10 08:07:40;;;;;;;8.23;4.10;;;23.40;99.90;;;;;;5025029;28;20206;-83
2021/08/10 08:10:08;;;;;;;10.80;3.88;;;23.40;99.90;;;;;;5027008;28;20217;-80
2021/08/10 08:12:35;;;;;;;10.73;4.50;;;23.70;99.90;;;;;;5029282;28;20206;-80
2021/08/10 08:15:01;;;;;;;6.75;4.35;;;24.00;99.90;;;;;;5022249;28;20207;-83
2021/08/10 08:17:28;;;;;;;11.40;4.38;;;24.10;99.90;;;;;;5011246;28;20238;-83
2021/08/10 08:19:58;;;;;;;8.88;4.45;;;24.20;99.90;;;;;;5022902;28;20206;-81
2021/08/10 08:22:26;;;;;;;10.18;4.55;;;24.30;99.90;;;;;;5028730;28;20199;-83
2021/08/10 08:24:53;;;;;;;7.07;3.30;;;24.60;99.90;;;;;;5028144;28;20393;-83
2021/08/10 08:27:19;;;;;;;7.38;3.40;;;24.80;99.90;;;;;;5024846;28;20207;-81
2021/08/10 08:29:47;;;;;;;6.93;3.42;;;24.90;99.90;;;;;;5008491;28;20246;-83
2021/08/10 08:32:13;;;;;;;7.40;3.63;;;25.10;99.90;;;;;;5010444;28;20210;-81
2021/08/10 08:34:40;;;;;;;8.10;3.65;;;25.10;99.90;;;;;;5011806;28;20210;-81
2021/08/10 08:37:07;;;;;;;9.35;3.65;;;25.20;99.90;;;;;;5009784;28;20258;-82
2021/08/10 08:39:35;;;;;;;9.25;3.75;;;25.20;99.90;;;;;;5009727;28;20200;-81
2021/08/10 08:42:03;;;;;;;13.35;4.05;;;25.30;99.90;;;;;;5011379;28;20211;-82
2021/08/10 08:44:35;;;;;;;11.95;4.47;;;25.30;99.90;;;;;;5008935;28;20203;-82
2021/08/10 08:47:03;;;;;;;8.00;3.22;;;25.50;99.90;;;;;;5018097;28;20673;-83
2021/08/10 08:49:32;;;;;;;7.55;3.35;;;25.30;99.90;;;;;;5029952;28;20206;-81
2021/08/10 08:52:01;;;;;;;10.05;4.53;;;25.00;99.90;;;;;;5026067;23;20229;-81
2021/08/10 08:54:29;;;;;;;7.65;3.70;;;25.20;99.90;;;;;;5049442;28;20614;-84
2021/08/10 08:56:57;;;;;;;8.63;3.95;;;25.40;99.90;;;;;;5051107;28;20222;-82
2021/08/10 08:59:25;;;;;;;8.85;3.90;;;25.10;99.90;;;;;;5056949;28;20197;-83
2021/08/10 09:01:52;;;;;;;12.98;4.40;;;25.10;99.90;;;;;;5039245;28;20202;-83
2021/08/10 09:04:20;;;;;;;11.07;4.63;;;25.00;99.90;;;;;;5053805;28;20202;-81
2021/08/10 09:06:47;;;;;;;11.13;4.57;;;24.70;99.90;;;;;;5052818;28;20202;-82
2021/08/10 09:09:21;;;;;;;12.07;4.55;;;24.40;99.90;;;;;;5051435;28;20201;-81
2021/08/10 09:11:51;;;;;;;13.30;5.35;;;24.20;99.90;;;;;;5050881;28;20206;-81
2021/08/10 09:14:20;;;;;;;10.20;4.55;;;24.20;99.90;;;;;;5053461;28;20202;-82
2021/08/10 09:17:07;;;;;;;8.52;4.35;;;24.50;99.90;;;;;;5049985;28;20287;-79
2021/08/10 09:19:43;;;;;;;12.68;5.18;;;24.40;99.90;;;;;;5031086;28;20202;-80
2021/08/10 09:22:21;;;;;;;8.23;3.50;;;24.00;99.90;;;;;;5030370;28;20209;-79
2021/08/10 09:24:51;;;;;;;8.35;3.97;;;23.80;99.90;;;;;;5029551;28;20209;-81
2021/08/10 09:27:30;;;;;;;7.63;3.83;;;23.30;99.90;;;;;;5047461;28;20212;-81
2021/08/10 09:30:00;;;;;;;10.05;4.28;;;22.90;99.90;;;;;;5049183;28;20205;-82
2021/08/10 09:32:28;;;;;;;9.52;4.50;;;22.50;99.90;;;;;;5048754;28;20194;-81
2021/08/10 09:35:10;;;;;;;10.23;4.90;;;22.10;99.90;;;;;;5043736;28;20232;-80
2021/08/10 09:37:37;;;;;;;7.43;3.97;;;22.00;99.90;;;;;;5027887;28;20218;-81
2021/08/10 09:40:29;;;;;;;7.25;3.72;;;22.10;99.90;;;;;;5036036;28;20947;-80
2021/08/10 09:43:03;;;;;;;10.70;4.38;;;22.00;99.90;;;;;;5047806;28;20210;-79
2021/08/10 09:45:31;;;;;;;9.90;3.85;;;22.00;99.90;;;;;;5047272;28;20582;-82
2021/08/10 09:47:59;;;;;;;10.50;4.00;;;21.80;99.90;;;;;;5042028;28;20638;-81
2021/08/10 09:50:26;;;;;;;7.90;4.47;;;21.60;99.90;;;;;;5027829;28;20206;-80
2021/08/10 09:52:53;;;;;;;7.95;3.90;;;21.60;99.90;;;;;;5026894;28;20333;-81
2021/08/10 09:55:20;;;;;;;7.43;3.78;;;21.70;99.90;;;;;;5027748;28;20210;-81
2021/08/10 09:58:01;;;;;;;7.90;3.85;;;21.80;99.90;;;;;;5027721;28;20233;-80
2021/08/10 10:00:39;;;;;;;7.57;4.05;;;21.90;99.90;;;;;;5027780;28;20206;-81
2021/08/10 10:03:16;;;;;;;6.70;3.83;;;21.90;99.90;;;;;;5027750;28;20260;-80
2021/08/10 10:05:44;;;;;;;6.38;3.75;;;21.80;99.90;;;;;;5026988;28;20583;-80
2021/08/10 10:08:14;;;;;;;5.72;3.78;;;21.70;99.90;;;;;;5027447;28;20199;-80
2021/08/10 10:10:41;;;;;;;8.57;3.90;;;21.60;99.90;;;;;;5027784;28;20503;-81
2021/08/10 10:13:10;;;;;;;6.03;3.70;;;21.70;99.90;;;;;;5026880;28;20198;-81
2021/08/10 10:15:40;;;;;;;8.77;4.20;;;21.50;99.90;;;;;;5030164;28;20669;-81
2021/08/10 10:18:07;;;;;;;7.68;4.00;;;21.50;99.90;;;;;;5046508;28;20299;-80
2021/08/10 10:20:37;;;;;;;7.72;4.57;;;21.60;99.90;;;;;;5045909;28;20590;-81
2021/08/10 10:23:05;;;;;;;8.68;4.15;;;21.50;99.90;;;;;;5047090;28;20198;-80
2021/08/10 10:25:34;;;;;;;8.85;3.85;;;21.50;99.90;;;;;;5036064;28;20206;-79
2021/08/10 10:28:01;;;;;;;8.48;4.35;;;21.40;99.90;;;;;;5026684;28;20203;-80
2021/08/10 10:30:28;;;;;;;7.47;4.07;;;21.40;99.90;;;;;;5029714;28;20308;-81
2021/08/10 10:32:58;;;;;;;9.55;4.57;;;21.40;99.90;;;;;;5045440;28;20613;-82
2021/08/10 10:35:26;;;;;;;10.48;4.50;;;21.60;99.90;;;;;;5031247;28;20229;-81
2021/08/10 10:37:54;;;;;;;5.95;4.47;;;21.70;99.90;;;;;;5026563;28;20222;-81
2021/08/10 10:40:22;;;;;;;5.35;4.03;;;21.60;99.90;;;;;;5026531;28;20606;-81
2021/08/10 10:42:54;;;;;;;8.52;3.80;;;21.60;99.90;;;;;;5026960;28;20249;-79
2021/08/10 10:45:32;;;;;;;8.27;4.43;;;21.50;99.90;;;;;;5026903;28;20207;-81
2021/08/10 10:48:00;;;;;;;9.70;4.68;;;21.60;99.90;;;;;;5026981;28;20206;-81
2021/08/10 10:50:27;;;;;;;6.55;3.90;;;22.00;99.90;;;;;;5026572;28;20194;-80
2021/08/10 10:53:22;;;;;;;8.82;4.30;;;22.30;99.90;;;;;;5026200;28;20318;-80
2021/08/10 10:55:49;;;;;;;8.50;4.72;;;22.80;99.90;;;;;;5025203;28;20210;-80
2021/08/10 10:58:34;;;;;;;8.43;4.75;;;23.00;99.90;;;;;;5026813;28;20222;-83
2021/08/10 11:01:20;;;;;;;10.10;4.75;;;23.00;99.90;;;;;;5043348;28;20221;-81
2021/08/10 11:04:11;;;;;;;8.85;4.45;;;23.00;99.90;;;;;;5041364;28;20971;-82
2021/08/10 11:06:55;;;;;;;7.20;4.38;;;23.00;99.90;;;;;;5025585;28;20297;-82
2021/08/10 11:09:58;;;;;;;8.35;4.22;;;22.80;99.90;;;;;;5033282;28;20214;-81
2021/08/10 11:12:42;;;;;;;8.25;3.90;;;22.40;99.90;;;;;;5047480;28;20205;-81
2021/08/10 11:15:10;;;;;;;6.65;3.90;;;22.30;99.90;;;;;;5046616;28;20213;-88
2021/08/10 11:17:37;;;;;;;7.05;4.30;;;22.00;99.90;;;;;;5047263;28;20222;-81
2021/08/10 11:20:24;;;;;;;8.15;4.47;;;21.80;99.90;;;;;;5045785;28;20209;-81
2021/08/10 11:22:52;;;;;;;10.05;4.72;;;21.80;99.90;;;;;;5045304;28;20217;-81
2021/08/10 11:25:24;;;;;;;11.13;4.72;;;22.00;99.90;;;;;;5044740;28;20198;-80
2021/08/10 11:27:51;;;;;;;8.65;4.50;;;22.30;99.90;;;;;;5026216;28;20210;-81
2021/08/10 11:30:46;;;;;;;6.85;3.70;;;22.40;99.90;;;;;;5028826;28;20475;-80
2021/08/10 11:33:41;;;;;;;7.72;3.97;;;22.60;99.90;;;;;;5009815;28;20215;-80
2021/08/10 11:36:25;;;;;;;7.97;4.30;;;22.60;99.90;;;;;;5044197;28;20241;-78
2021/08/10 11:39:08;;;;;;;8.88;4.82;;;22.60;99.90;;;;;;5043548;28;20233;-81
2021/08/10 11:41:37;;;;;;;7.00;4.20;;;22.60;99.90;;;;;;5026496;28;20207;-81
2021/08/10 11:44:06;;;;;;;7.88;4.57;;;22.60;99.90;;;;;;5034308;28;20205;-80
2021/08/10 11:46:34;;;;;;;9.82;4.68;;;22.70;99.90;;;;;;5041702;28;20214;-82
2021/08/10 11:49:03;;;;;;;7.13;4.38;;;22.80;99.90;;;;;;5053112;28;20244;-82
2021/08/10 11:51:34;;;;;;;8.05;4.18;;;23.00;99.90;;;;;;5059734;28;20329;-81
2021/08/10 11:54:08;;;;;;;6.75;4.05;;;23.00;99.90;;;;;;5032872;28;20542;-83
2021/08/10 11:56:37;;;;;;;5.15;3.55;;;22.70;99.90;;;;;;5032990;28;20300;-83
2021/08/10 11:59:06;;;;;;;8.77;4.13;;;22.50;99.90;;;;;;5032185;28;20238;-82
2021/08/10 12:01:37;;;;;;;6.28;4.38;;;22.50;99.90;;;;;;5032677;28;20207;-81
2021/08/10 12:04:12;;;;;;;8.18;4.30;;;22.60;99.90;;;;;;5032541;28;20213;-82
2021/08/10 12:06:41;;;;;;;6.00;4.00;;;22.70;99.90;;;;;;5032036;28;20206;-81
2021/08/10 12:09:09;;;;;;;7.93;4.13;;;22.60;99.90;;;;;;5032107;28;20198;-81
2021/08/10 12:11:37;;;;;;;8.15;4.25;;;22.60;99.90;;;;;;5038713;28;20205;-80
2021/08/10 12:14:12;;;;;;;7.85;4.43;;;22.50;99.90;;;;;;5051737;28;20283;-81
2021/08/10 12:16:40;;;;;;;8.02;4.28;;;22.50;99.90;;;;;;5052075;28;20598;-80
2021/08/10 12:19:07;;;;;;;8.57;4.32;;;22.60;99.90;;;;;;5051414;28;20605;-81
2021/08/10 12:21:44;;;;;;;9.73;4.93;;;22.70;99.90;;;;;;5050525;28;20293;-82
2021/08/10 12:24:29;;;;;;;8.90;5.20;;;22.60;99.90;;;;;;5053181;28;20205;-82
2021/08/10 12:26:56;;;;;;;9.57;5.13;;;22.40;99.90;;;;;;5051407;28;20233;-81
2021/08/10 12:29:33;;;;;;;8.43;5.10;;;22.40;99.90;;;;;;5051705;28;20194;-82
2021/08/10 12:32:01;;;;;;;8.10;5.20;;;22.40;99.90;;;;;;5051317;28;20240;-83
2021/08/10 12:34:32;;;;;;;7.90;4.68;;;22.40;99.90;;;;;;5049263;28;20205;-80
2021/08/10 12:37:01;;;;;;;7.13;4.80;;;22.50;99.90;;;;;;5051242;28;20194;-84
2021/08/10 12:39:28;;;;;;;11.02;5.97;;;22.80;99.90;;;;;;5051534;28;20229;-81
2021/08/10 12:41:59;;;;;;;10.90;5.97;;;23.00;99.90;;;;;;5047849;28;20212;-81
2021/08/10 12:44:27;;;;;;;9.07;5.45;;;23.00;99.90;;;;;;5031436;28;20243;-81
2021/08/10 12:46:56;;;;;;;9.40;5.50;;;23.00;99.90;;;;;;5031170;28;20233;-81
2021/08/10 12:49:34;;;;;;;12.35;5.28;;;22.90;99.90;;;;;;5029939;28;20203;-79
2021/08/10 12:52:05;;;;;;;9.30;4.65;;;22.90;99.90;;;;;;5031269;28;20238;-81